| time (UTC) | temp C | wind direction | speed KPH | gust KPH | rain 1hr cm | rain 24hr cm | rain mn cm | humidity % | barometer mb |
| 20260507105007 | 7 | 264 | 0.0 | 1.6 | 0.00 | 1.19 | 0.30 | 95 | 1007.6 |
| 20260507104503 | 7 | 264 | 0.0 | 1.6 | 0.00 | 1.19 | 0.30 | 95 | 1007.9 |
| 20260507104003 | 6 | 264 | 0.0 | 1.6 | 0.00 | 1.19 | 0.30 | 94 | 1007.8 |
| 20260507103502 | 6 | 264 | 0.0 | 1.6 | 0.00 | 1.19 | 0.30 | 94 | 1007.6 |
| 20260507103007 | 6 | 264 | 0.0 | 1.6 | 0.00 | 1.19 | 0.30 | 94 | 1007.4 |
| 20260507102504 | 6 | 264 | 0.0 | 1.6 | 0.00 | 1.19 | 0.30 | 94 | 1008.0 |
| 20260507102006 | 6 | 260 | 0.0 | 1.6 | 0.00 | 1.19 | 0.30 | 94 | 1007.2 |
| 20260507101508 | 6 | 260 | 0.0 | 1.6 | 0.00 | 1.19 | 0.30 | 94 | 1007.5 |
| 20260507101003 | 6 | 260 | 0.0 | 1.6 | 0.00 | 1.19 | 0.30 | 94 | 1007.5 |
| 20260507100503 | 6 | 260 | 0.0 | 1.6 | 0.00 | 1.19 | 0.30 | 94 | 1007.5 |
| 20260507100025 | 6 | 260 | 0.0 | 1.6 | 0.00 | 1.19 | 0.30 | 94 | 1007.6 |
| 20260507095507 | 6 | 260 | 0.0 | 1.6 | 0.00 | 1.19 | 0.30 | 94 | 1007.4 |
| 20260507095012 | 6 | 260 | 0.0 | 1.6 | 0.00 | 1.19 | 0.30 | 94 | 1007.0 |
| 20260507094517 | 6 | 260 | 0.0 | 1.6 | 0.00 | 1.19 | 0.30 | 94 | 1007.0 |
| 20260507094007 | 6 | 259 | 0.0 | 1.6 | 0.00 | 1.19 | 0.30 | 94 | 1006.8 |
| 20260507093506 | 6 | 260 | 0.0 | 1.6 | 0.00 | 1.19 | 0.30 | 94 | 1007.2 |
| 20260507093003 | 7 | 260 | 0.0 | 1.6 | 0.00 | 1.19 | 0.30 | 94 | 1006.8 |
| 20260507092505 | 7 | 260 | 0.0 | 1.6 | 0.00 | 1.19 | 0.30 | 94 | 1006.5 |
| 20260507092002 | 7 | 260 | 0.0 | 1.6 | 0.00 | 1.19 | 0.30 | 94 | 1006.6 |
| 20260507091514 | 7 | 260 | 0.0 | 1.6 | 0.00 | 1.19 | 0.30 | 94 | 1006.8 |
| 20260507091003 | 7 | 260 | 0.0 | 1.6 | 0.00 | 1.19 | 0.30 | 94 | 1006.9 |
| 20260507090503 | 7 | 260 | 0.0 | 1.6 | 0.00 | 1.19 | 0.30 | 94 | 1007.2 |
| 20260507090008 | 7 | 260 | 0.0 | 1.6 | 0.00 | 1.19 | 0.30 | 94 | 1007.1 |
| 20260507085503 | 7 | 260 | 0.0 | 1.6 | 0.00 | 1.19 | 0.30 | 94 | 1007.0 |
| 20260507085004 | 7 | 260 | 0.0 | 1.6 | 0.00 | 1.19 | 0.30 | 94 | 1006.9 |
| 20260507084514 | 7 | 260 | 0.0 | 1.6 | 0.00 | 1.19 | 0.30 | 94 | 1007.4 |
| 20260507084004 | 7 | 261 | 0.0 | 1.6 | 0.00 | 1.19 | 0.30 | 94 | 1007.3 |
| 20260507083508 | 7 | 262 | 0.0 | 1.6 | 0.00 | 1.19 | 0.30 | 94 | 1007.1 |
| 20260507083021 | 7 | 276 | 0.0 | 1.6 | 0.00 | 1.19 | 0.30 | 94 | 1006.7 |
| 20260507082508 | 7 | 274 | 0.0 | 1.6 | 0.00 | 1.19 | 0.30 | 94 | 1006.4 |
| 20260507082003 | 7 | 274 | 0.0 | 1.6 | 0.00 | 1.19 | 0.30 | 94 | 1006.6 |
| 20260507081504 | 8 | 271 | 0.0 | 1.6 | 0.00 | 1.19 | 0.30 | 94 | 1006.9 |
| 20260507081003 | 8 | 271 | 0.0 | 1.6 | 0.00 | 1.19 | 0.30 | 94 | 1007.2 |
| 20260507080505 | 8 | 335 | 0.0 | 1.6 | 0.00 | 1.19 | 0.30 | 94 | 1006.7 |
| 20260507080008 | 8 | 335 | 0.0 | 1.6 | 0.00 | 1.19 | 0.30 | 94 | 1006.5 |
| 20260507075503 | 8 | 335 | 0.0 | 1.6 | 0.00 | 1.19 | 0.30 | 94 | 1006.3 |
| 20260507075009 | 8 | 335 | 0.0 | 1.6 | 0.00 | 1.19 | 0.30 | 94 | 1006.3 |
| 20260507074512 | 8 | 336 | 0.0 | 1.6 | 0.00 | 1.19 | 0.30 | 94 | 1006.0 |
| 20260507074003 | 8 | 266 | 0.0 | 1.6 | 0.00 | 1.19 | 0.30 | 94 | 1006.5 |
| 20260507073507 | 8 | 348 | 0.0 | 1.6 | 0.00 | 1.19 | 0.30 | 94 | 1006.3 |
| 20260507073014 | 8 | 277 | 0.0 | 1.6 | 0.00 | 1.19 | 0.30 | 94 | 1006.3 |
| 20260507072511 | 8 | 277 | 0.0 | 1.6 | 0.00 | 1.19 | 0.30 | 94 | 1006.2 |
| 20260507072009 | 8 | 277 | 0.0 | 1.6 | 0.00 | 1.19 | 0.30 | 94 | 1006.2 |
| 20260507071520 | 8 | 277 | 0.0 | 1.6 | 0.00 | 1.19 | 0.30 | 94 | 1006.3 |
| 20260507071012 | 8 | 277 | 0.0 | 1.6 | 0.00 | 1.19 | 0.30 | 94 | 1006.3 |
| 20260507070506 | 8 | 277 | 0.0 | 1.6 | 0.00 | 1.19 | 0.30 | 94 | 1006.0 |
| 20260507070008 | 8 | 277 | 0.0 | 1.6 | 0.00 | 1.19 | 0.30 | 94 | 1005.9 |
| 20260507065504 | 9 | 277 | 0.0 | 1.6 | 0.00 | 1.19 | 0.30 | 94 | 1006.0 |
| 20260507065004 | 9 | 277 | 0.0 | 1.6 | 0.00 | 1.19 | 0.30 | 95 | 1006.1 |
| 20260507064512 | 9 | 277 | 0.0 | 1.6 | 0.00 | 1.19 | 0.30 | 94 | 1005.9 |
| 20260507064006 | 9 | 277 | 0.0 | 0.0 | 0.00 | 1.19 | 0.30 | 94 | 1005.8 |
| 20260507063507 | 9 | 277 | 0.0 | 1.6 | 0.00 | 1.19 | 0.30 | 94 | 1005.8 |
| 20260507063012 | 9 | 277 | 0.0 | 1.6 | 0.00 | 1.19 | 0.30 | 94 | 1005.7 |
| 20260507062510 | 9 | 277 | 0.0 | 1.6 | 0.00 | 1.19 | 0.30 | 94 | 1005.8 |
| 20260507062011 | 9 | 277 | 0.0 | 1.6 | 0.03 | 1.19 | 0.30 | 94 | 1005.5 |
| 20260507061529 | 9 | 277 | 0.0 | 1.6 | 0.03 | 1.19 | 0.30 | 94 | 1005.5 |
| 20260507061008 | 10 | 277 | 0.0 | 1.6 | 0.03 | 1.19 | 0.30 | 95 | 1005.4 |
| 20260507060508 | 10 | 277 | 0.0 | 1.6 | 0.03 | 1.19 | 0.30 | 95 | 1005.5 |
| 20260507060029 | 10 | 277 | 0.0 | 1.6 | 0.03 | 1.19 | 0.30 | 94 | 1005.5 |
| 20260507055503 | 10 | 277 | 0.0 | 1.6 | 0.03 | 1.19 | 0.30 | 95 | 1005.5 |
| 20260507055005 | 10 | 277 | 0.0 | 1.6 | 0.03 | 1.19 | 0.30 | 94 | 1005.6 |
| 20260507054505 | 10 | 277 | 0.0 | 1.6 | 0.03 | 1.19 | 0.30 | 94 | 1005.4 |
| 20260507054004 | 10 | 277 | 0.0 | 1.6 | 0.05 | 1.19 | 0.30 | 94 | 1005.6 |
| 20260507053504 | 10 | 277 | 0.0 | 1.6 | 0.05 | 1.19 | 0.30 | 94 | 1005.7 |
| 20260507053011 | 10 | 277 | 0.0 | 1.6 | 0.05 | 1.19 | 0.30 | 94 | 1005.5 |
| 20260507052504 | 10 | 277 | 0.0 | 1.6 | 0.08 | 1.19 | 0.30 | 94 | 1005.5 |
| 20260507052008 | 10 | 277 | 0.0 | 1.6 | 0.10 | 1.17 | 0.28 | 94 | 1005.5 |
| 20260507051519 | 10 | 277 | 0.0 | 1.6 | 0.20 | 1.17 | 0.28 | 94 | 1005.4 |
| 20260507051009 | 10 | 277 | 0.0 | 1.6 | 0.25 | 1.17 | 0.28 | 94 | 1005.5 |
| 20260507050507 | 10 | 314 | 0.0 | 1.6 | 0.28 | 1.17 | 0.28 | 94 | 1005.4 |
| 20260507050030 | 10 | 316 | 0.0 | 3.2 | 0.28 | 1.17 | 0.28 | 95 | 1005.4 |
| 20260507045509 | 10 | 332 | 0.0 | 3.2 | 0.28 | 1.17 | 0.28 | 95 | 1005.4 |
| 20260507045009 | 11 | 219 | 0.0 | 3.2 | 0.28 | 1.17 | 0.28 | 95 | 1005.5 |
| 20260507044538 | 11 | 309 | 0.0 | 3.2 | 0.28 | 1.17 | 0.28 | 95 | 1005.4 |
| 20260507044004 | 11 | 319 | 1.6 | 3.2 | 0.25 | 1.14 | 0.25 | 95 | 1005.3 |
| 20260507043504 | 11 | 354 | 0.0 | 1.6 | 0.25 | 1.14 | 0.25 | 95 | 1005.3 |
| 20260507043009 | 11 | 316 | 0.0 | 3.2 | 0.25 | 1.14 | 0.25 | 95 | 1005.4 |
| 20260507042507 | 11 | 316 | 0.0 | 4.8 | 0.23 | 1.12 | 0.23 | 95 | 1005.3 |
| 20260507042006 | 11 | 11 | 0.0 | 4.8 | 0.20 | 1.07 | 0.18 | 95 | 1005.4 |
| 20260507041515 | 11 | 309 | 1.6 | 3.2 | 0.10 | 0.97 | 0.08 | 95 | 1005.7 |
| 20260507041008 | 11 | 253 | 1.6 | 1.6 | 0.05 | 0.91 | 0.03 | 95 | 1005.5 |
| 20260507040511 | 10 | 345 | 0.0 | 1.6 | 0.03 | 0.89 | 0.00 | 95 | 1005.2 |
| 20260507040019 | 10 | 345 | 0.0 | 3.2 | 0.03 | 0.89 | 0.00 | 95 | 1005.2 |
| 20260507035508 | 10 | 345 | 0.0 | 3.2 | 0.03 | 0.89 | 0.89 | 95 | 1005.1 |
| 20260507035009 | 10 | 201 | 0.0 | 0.0 | 0.03 | 0.89 | 0.89 | 95 | 1004.6 |
| 20260507034522 | 10 | 202 | 0.0 | 0.0 | 0.03 | 0.89 | 0.89 | 95 | 1004.5 |
| 20260507034008 | 10 | 202 | 0.0 | 0.0 | 0.03 | 0.89 | 0.89 | 95 | 1004.6 |
| 20260507033508 | 10 | 200 | 0.0 | 0.0 | 0.03 | 0.89 | 0.89 | 95 | 1004.5 |
| 20260507033009 | 10 | 200 | 0.0 | 0.0 | 0.03 | 0.89 | 0.89 | 95 | 1004.3 |
| 20260507032505 | 10 | 202 | 0.0 | 0.0 | 0.05 | 0.89 | 0.89 | 95 | 1004.4 |
| 20260507032006 | 10 | 201 | 0.0 | 0.0 | 0.03 | 0.86 | 0.86 | 95 | 1004.5 |
| 20260507031509 | 10 | 201 | 0.0 | 0.0 | 0.03 | 0.86 | 0.86 | 95 | 1004.5 |
| 20260507031011 | 10 | 201 | 0.0 | 1.6 | 0.03 | 0.86 | 0.86 | 95 | 1004.5 |
| 20260507030508 | 10 | 202 | 0.0 | 1.6 | 0.03 | 0.86 | 0.86 | 95 | 1004.5 |
| 20260507030014 | 10 | 202 | 0.0 | 1.6 | 0.03 | 0.86 | 0.86 | 95 | 1004.6 |
| 20260507025508 | 10 | 197 | 0.0 | 1.6 | 0.03 | 0.86 | 0.86 | 95 | 1004.5 |
| 20260507025006 | 10 | 197 | 0.0 | 1.6 | 0.03 | 0.86 | 0.86 | 95 | 1004.6 |
| 20260507024518 | 10 | 245 | 0.0 | 1.6 | 0.03 | 0.86 | 0.86 | 95 | 1004.6 |
| 20260507024011 | 10 | 245 | 0.0 | 1.6 | 0.03 | 0.86 | 0.86 | 95 | 1004.7 |
| 20260507023502 | 10 | 252 | 0.0 | 1.6 | 0.03 | 0.86 | 0.86 | 95 | 1004.9 |
| 20260507023003 | 10 | 170 | 0.0 | 3.2 | 0.05 | 0.86 | 0.86 | 95 | 1004.9 |
| 20260507022503 | 10 | 170 | 0.0 | 3.2 | 0.03 | 0.84 | 0.84 | 95 | 1004.9 |
| 20260507022006 | 10 | 224 | 1.6 | 3.2 | 0.03 | 0.84 | 0.84 | 94 | 1004.9 |
| 20260507021508 | 10 | 153 | 0.0 | 1.6 | 0.03 | 0.84 | 0.84 | 94 | 1004.9 |
| 20260507021012 | 10 | 186 | 0.0 | 3.2 | 0.03 | 0.84 | 0.84 | 94 | 1005.0 |
| 20260507020507 | 10 | 153 | 0.0 | 3.2 | 0.05 | 0.84 | 0.84 | 94 | 1005.0 |
| 20260507020003 | 10 | 216 | 1.6 | 4.8 | 0.05 | 0.84 | 0.84 | 94 | 1005.0 |
| 20260507015502 | 10 | 196 | 1.6 | 4.8 | 0.05 | 0.84 | 0.84 | 94 | 1005.0 |
| 20260507015002 | 10 | 160 | 1.6 | 8.0 | 0.05 | 0.84 | 0.84 | 94 | 1005.1 |
| 20260507014503 | 10 | 153 | 1.6 | 9.7 | 0.05 | 0.84 | 0.84 | 94 | 1005.2 |
| 20260507014002 | 10 | 131 | 3.2 | 9.7 | 0.05 | 0.84 | 0.84 | 94 | 1005.3 |
| 20260507013502 | 10 | 160 | 1.6 | 6.4 | 0.05 | 0.84 | 0.84 | 94 | 1005.3 |
| 20260507013003 | 10 | 214 | 3.2 | 6.4 | 0.05 | 0.81 | 0.81 | 94 | 1005.4 |
| 20260507012506 | 10 | 169 | 1.6 | 6.4 | 0.05 | 0.81 | 0.81 | 94 | 1005.4 |
| 20260507012003 | 10 | 229 | 1.6 | 6.4 | 0.05 | 0.81 | 0.81 | 94 | 1005.4 |
| 20260507011507 | 10 | 193 | 1.6 | 4.8 | 0.05 | 0.81 | 0.81 | 94 | 1005.4 |
| 20260507011004 | 10 | 167 | 1.6 | 4.8 | 0.05 | 0.81 | 0.81 | 94 | 1005.6 |
| 20260507010503 | 10 | 150 | 1.6 | 4.8 | 0.03 | 0.79 | 0.79 | 94 | 1005.5 |
| 20260507010012 | 10 | 252 | 3.2 | 4.8 | 0.03 | 0.79 | 0.79 | 94 | 1005.5 |
| 20260507005508 | 10 | 150 | 1.6 | 4.8 | 0.03 | 0.79 | 0.79 | 94 | 1005.6 |
| 20260507005005 | 10 | 227 | 3.2 | 8.0 | 0.03 | 0.79 | 0.79 | 94 | 1005.6 |
| 20260507004502 | 10 | 212 | 1.6 | 8.0 | 0.03 | 0.79 | 0.79 | 94 | 1005.7 |
| 20260507004003 | 10 | 150 | 1.6 | 3.2 | 0.03 | 0.79 | 0.79 | 94 | 1005.8 |
| 20260507003503 | 10 | 158 | 1.6 | 4.8 | 0.03 | 0.79 | 0.79 | 94 | 1005.8 |
| 20260507003004 | 10 | 143 | 1.6 | 4.8 | 0.00 | 0.76 | 0.76 | 94 | 1005.8 |
| 20260507002503 | 10 | 158 | 1.6 | 4.8 | 0.00 | 0.76 | 0.76 | 94 | 1005.9 |
| 20260507002003 | 10 | 127 | 1.6 | 4.8 | 0.00 | 0.76 | 0.76 | 94 | 1005.9 |
| 20260507001510 | 10 | 128 | 1.6 | 3.2 | 0.00 | 0.76 | 0.76 | 94 | 1005.9 |
| 20260507001003 | 10 | 232 | 1.6 | 3.2 | 0.00 | 0.76 | 0.76 | 94 | 1006.0 |
| 20260507000506 | 10 | 165 | 0.0 | 3.2 | 0.00 | 0.76 | 0.76 | 94 | 1006.0 |
| 20260507000008 | 10 | 221 | 1.6 | 3.2 | 0.00 | 0.76 | 0.76 | 94 | 1005.9 |
| 20260506235507 | 10 | 149 | 0.0 | 4.8 | 0.00 | 0.76 | 0.76 | 94 | 1005.9 |
| 20260506235008 | 10 | 143 | 1.6 | 4.8 | 0.00 | 0.76 | 0.76 | 94 | 1005.8 |
| 20260506234515 | 10 | 160 | 1.6 | 3.2 | 0.00 | 0.76 | 0.76 | 94 | 1005.8 |
| 20260506234008 | 10 | 103 | 1.6 | 4.8 | 0.00 | 0.76 | 0.76 | 93 | 1005.7 |
| 20260506233503 | 10 | 158 | 1.6 | 4.8 | 0.00 | 0.76 | 0.76 | 94 | 1005.8 |
| 20260506233004 | 10 | 229 | 1.6 | 9.7 | 0.00 | 0.76 | 0.76 | 93 | 1005.9 |
| 20260506232502 | 10 | 181 | 0.0 | 9.7 | 0.03 | 0.76 | 0.76 | 93 | 1005.9 |
| 20260506232003 | 10 | 276 | 1.6 | 6.4 | 0.03 | 0.76 | 0.76 | 93 | 1005.8 |
| 20260506231504 | 10 | 259 | 3.2 | 8.0 | 0.05 | 0.76 | 0.76 | 93 | 1005.9 |
| 20260506231003 | 10 | 227 | 1.6 | 8.0 | 0.05 | 0.76 | 0.76 | 93 | 1005.9 |
| 20260506230503 | 11 | 285 | 1.6 | 4.8 | 0.08 | 0.76 | 0.76 | 93 | 1005.8 |
| 20260506230007 | 11 | 252 | 1.6 | 3.2 | 0.08 | 0.76 | 0.76 | 93 | 1005.9 |
| 20260506225505 | 11 | 27 | 0.0 | 4.8 | 0.08 | 0.76 | 0.76 | 93 | 1006.0 |
| 20260506225003 | 11 | 250 | 1.6 | 4.8 | 0.08 | 0.76 | 0.76 | 93 | 1006.1 |
| 20260506224509 | 11 | 153 | 1.6 | 3.2 | 0.08 | 0.76 | 0.76 | 93 | 1006.1 |
| 20260506224007 | 11 | 175 | 0.0 | 4.8 | 0.08 | 0.76 | 0.76 | 93 | 1006.0 |
| 20260506223507 | 11 | 216 | 1.6 | 4.8 | 0.08 | 0.76 | 0.76 | 93 | 1006.2 |
| 20260506223014 | 11 | 209 | 0.0 | 4.8 | 0.10 | 0.76 | 0.76 | 93 | 1006.2 |
| 20260506222510 | 11 | 143 | 1.6 | 4.8 | 0.08 | 0.74 | 0.74 | 93 | 1006.3 |
| 20260506222003 | 11 | 264 | 1.6 | 4.8 | 0.08 | 0.74 | 0.74 | 93 | 1006.4 |
| 20260506221505 | 11 | 91 | 1.6 | 6.4 | 0.08 | 0.71 | 0.71 | 93 | 1006.4 |
| 20260506221003 | 11 | 189 | 1.6 | 6.4 | 0.13 | 0.71 | 0.71 | 93 | 1006.5 |
| 20260506220503 | 11 | 152 | 1.6 | 4.8 | 0.13 | 0.69 | 0.69 | 93 | 1006.5 |
| 20260506220004 | 11 | 149 | 3.2 | 4.8 | 0.13 | 0.69 | 0.69 | 93 | 1006.6 |
| 20260506215503 | 11 | 212 | 1.6 | 4.8 | 0.15 | 0.69 | 0.69 | 93 | 1006.6 |
| 20260506215003 | 11 | 255 | 1.6 | 4.8 | 0.18 | 0.69 | 0.69 | 93 | 1006.6 |
| 20260506214509 | 11 | 282 | 1.6 | 4.8 | 0.20 | 0.69 | 0.69 | 93 | 1006.5 |
| 20260506214003 | 11 | 199 | 1.6 | 4.8 | 0.23 | 0.69 | 0.69 | 92 | 1006.6 |
| 20260506213506 | 11 | 169 | 1.6 | 6.4 | 0.23 | 0.69 | 0.69 | 92 | 1006.6 |
| 20260506213017 | 11 | 188 | 3.2 | 6.4 | 0.20 | 0.66 | 0.66 | 92 | 1006.7 |
| 20260506212508 | 11 | 210 | 1.6 | 4.8 | 0.23 | 0.66 | 0.66 | 92 | 1006.7 |
| 20260506212010 | 11 | 255 | 1.6 | 4.8 | 0.23 | 0.66 | 0.66 | 92 | 1006.8 |
| 20260506211519 | 11 | 164 | 1.6 | 4.8 | 0.20 | 0.64 | 0.64 | 92 | 1006.9 |
| 20260506211007 | 11 | 232 | 1.6 | 4.8 | 0.15 | 0.58 | 0.58 | 91 | 1007.1 |
| 20260506210504 | 11 | 212 | 1.6 | 4.8 | 0.13 | 0.56 | 0.56 | 91 | 1007.0 |
| 20260506210005 | 11 | 214 | 1.6 | 3.2 | 0.15 | 0.56 | 0.56 | 91 | 1007.0 |
| 20260506205503 | 11 | 214 | 1.6 | 4.8 | 0.15 | 0.53 | 0.53 | 91 | 1007.0 |
| 20260506205003 | 11 | 183 | 1.6 | 4.8 | 0.15 | 0.51 | 0.51 | 92 | 1006.9 |
| 20260506204508 | 11 | 194 | 1.6 | 4.8 | 0.18 | 0.48 | 0.48 | 91 | 1006.9 |
| 20260506204007 | 11 | 121 | 1.6 | 4.8 | 0.15 | 0.46 | 0.46 | 92 | 1006.9 |
| 20260506203503 | 11 | 124 | 1.6 | 4.8 | 0.20 | 0.46 | 0.46 | 92 | 1006.9 |
| 20260506203011 | 11 | 159 | 1.6 | 4.8 | 0.23 | 0.46 | 0.46 | 92 | 1006.8 |
| 20260506202509 | 11 | 238 | 1.6 | 3.2 | 0.20 | 0.43 | 0.43 | 92 | 1006.8 |
| 20260506202007 | 11 | 128 | 0.0 | 3.2 | 0.23 | 0.43 | 0.43 | 92 | 1006.8 |
| 20260506201514 | 11 | 190 | 1.6 | 3.2 | 0.25 | 0.43 | 0.43 | 92 | 1007.2 |
| 20260506201008 | 11 | 238 | 1.6 | 3.2 | 0.28 | 0.43 | 0.43 | 92 | 1006.9 |
| 20260506200507 | 11 | 162 | 1.6 | 4.8 | 0.30 | 0.43 | 0.43 | 92 | 1006.9 |
| 20260506200026 | 11 | 160 | 1.6 | 4.8 | 0.30 | 0.41 | 0.41 | 91 | 1007.2 |
| 20260506195504 | 11 | 169 | 1.6 | 3.2 | 0.30 | 0.38 | 0.38 | 91 | 1007.2 |
| 20260506195005 | 11 | 104 | 1.6 | 3.2 | 0.30 | 0.36 | 0.36 | 91 | 1007.4 |
| 20260506194506 | 11 | 221 | 1.6 | 1.6 | 0.28 | 0.30 | 0.30 | 91 | 1007.6 |
| 20260506194003 | 11 | 174 | 0.0 | 3.2 | 0.30 | 0.30 | 0.30 | 91 | 1007.5 |
| 20260506193503 | 11 | 158 | 1.6 | 3.2 | 0.25 | 0.25 | 0.25 | 91 | 1007.3 |
| 20260506193008 | 11 | 148 | 1.6 | 3.2 | 0.23 | 0.23 | 0.23 | 91 | 1007.2 |
| 20260506192508 | 11 | 141 | 1.6 | 3.2 | 0.23 | 0.23 | 0.23 | 90 | 1007.4 |
| 20260506192009 | 11 | 244 | 0.0 | 3.2 | 0.20 | 0.20 | 0.20 | 90 | 1007.6 |
| 20260506191514 | 11 | 140 | 1.6 | 3.2 | 0.18 | 0.18 | 0.18 | 90 | 1007.6 |
| 20260506191006 | 11 | 113 | 1.6 | 3.2 | 0.15 | 0.15 | 0.15 | 90 | 1007.6 |
| 20260506190508 | 11 | 238 | 1.6 | 3.2 | 0.13 | 0.13 | 0.13 | 89 | 1007.6 |
| 20260506190020 | 11 | 191 | 0.0 | 4.8 | 0.10 | 0.10 | 0.10 | 89 | 1007.5 |
| 20260506185507 | 11 | 206 | 1.6 | 6.4 | 0.08 | 0.08 | 0.08 | 88 | 1007.5 |
| 20260506185007 | 11 | 135 | 1.6 | 6.4 | 0.05 | 0.05 | 0.05 | 87 | 1007.5 |
| 20260506184520 | 12 | 173 | 1.6 | 4.8 | 0.03 | 0.03 | 0.03 | 86 | 1007.6 |
| 20260506184004 | 12 | 239 | 1.6 | 4.8 | 0.00 | 0.00 | 0.00 | 85 | 1007.5 |
| 20260506183504 | 12 | 150 | 1.6 | 4.8 | 0.00 | 0.00 | 0.00 | 83 | 1007.6 |
| 20260506183008 | 12 | 252 | 1.6 | 6.4 | 0.00 | 0.00 | 0.00 | 83 | 1007.6 |
| 20260506182504 | 12 | 253 | 1.6 | 6.4 | 0.00 | 0.00 | 0.00 | 83 | 1007.6 |
| 20260506182011 | 12 | 184 | 1.6 | 3.2 | 0.00 | 0.00 | 0.00 | 83 | 1007.5 |
| 20260506181510 | 12 | 223 | 0.0 | 6.4 | 0.00 | 0.00 | 0.00 | 82 | 1007.6 |
| 20260506181005 | 12 | 222 | 0.0 | 6.4 | 0.00 | 0.00 | 0.00 | 82 | 1007.7 |
| 20260506180505 | 12 | 191 | 1.6 | 4.8 | 0.00 | 0.00 | 0.00 | 82 | 1007.6 |
| 20260506180018 | 12 | 135 | 1.6 | 4.8 | 0.00 | 0.00 | 0.00 | 82 | 1007.6 |
| 20260506175510 | 12 | 211 | 1.6 | 4.8 | 0.00 | 0.00 | 0.00 | 82 | 1007.6 |
| 20260506175008 | 12 | 207 | 3.2 | 4.8 | 0.00 | 0.00 | 0.00 | 81 | 1007.7 |
| 20260506174519 | 12 | 174 | 1.6 | 4.8 | 0.00 | 0.00 | 0.00 | 81 | 1007.8 |
| 20260506174012 | 12 | 116 | 1.6 | 6.4 | 0.00 | 0.00 | 0.00 | 81 | 1007.7 |
| 20260506173503 | 13 | 159 | 1.6 | 6.4 | 0.00 | 0.00 | 0.00 | 81 | 1007.8 |
| 20260506173007 | 13 | 119 | 3.2 | 6.4 | 0.00 | 0.00 | 0.00 | 80 | 1007.9 |
| 20260506172504 | 13 | 146 | 1.6 | 4.8 | 0.00 | 0.00 | 0.00 | 80 | 1008.0 |
| 20260506172005 | 13 | 133 | 1.6 | 4.8 | 0.00 | 0.00 | 0.00 | 80 | 1008.1 |
| 20260506171504 | 13 | 131 | 1.6 | 4.8 | 0.00 | 0.00 | 0.00 | 79 | 1008.1 |
| 20260506171004 | 13 | 124 | 1.6 | 4.8 | 0.00 | 0.00 | 0.00 | 79 | 1008.3 |
| 20260506170504 | 14 | 155 | 1.6 | 4.8 | 0.00 | 0.00 | 0.00 | 79 | 1008.4 |
| 20260506170004 | 14 | 111 | 3.2 | 4.8 | 0.00 | 0.00 | 0.00 | 79 | 1008.4 |
| 20260506165504 | 14 | 131 | 1.6 | 4.8 | 0.00 | 0.00 | 0.00 | 79 | 1008.5 |
| 20260506165005 | 14 | 238 | 1.6 | 8.0 | 0.00 | 0.00 | 0.00 | 79 | 1008.6 |
| 20260506164507 | 14 | 200 | 1.6 | 8.0 | 0.00 | 0.00 | 0.00 | 80 | 1008.7 |
| 20260506164007 | 14 | 259 | 1.6 | 9.7 | 0.00 | 0.00 | 0.00 | 80 | 1008.7 |
| 20260506163508 | 14 | 228 | 4.8 | 9.7 | 0.00 | 0.00 | 0.00 | 79 | 1008.8 |
| 20260506163006 | 14 | 278 | 3.2 | 6.4 | 0.00 | 0.00 | 0.00 | 79 | 1008.9 |
| 20260506162504 | 14 | 231 | 1.6 | 6.4 | 0.00 | 0.00 | 0.00 | 80 | 1009.1 |
| 20260506162004 | 14 | 238 | 1.6 | 6.4 | 0.00 | 0.00 | 0.00 | 80 | 1009.3 |
| 20260506161507 | 14 | 139 | 3.2 | 6.4 | 0.00 | 0.00 | 0.00 | 80 | 1009.3 |
| 20260506161004 | 13 | 230 | 3.2 | 8.0 | 0.00 | 0.00 | 0.00 | 80 | 1009.4 |
| 20260506160504 | 13 | 169 | 3.2 | 8.0 | 0.00 | 0.00 | 0.00 | 80 | 1009.4 |
| 20260506160012 | 14 | 112 | 3.2 | 6.4 | 0.00 | 0.00 | 0.00 | 80 | 1009.5 |
| 20260506155505 | 14 | 214 | 1.6 | 6.4 | 0.00 | 0.00 | 0.00 | 80 | 1009.6 |
| 20260506155005 | 14 | 124 | 3.2 | 6.4 | 0.00 | 0.00 | 0.00 | 80 | 1009.6 |
| 20260506154504 | 14 | 75 | 3.2 | 6.4 | 0.00 | 0.00 | 0.00 | 81 | 1009.6 |
| 20260506154007 | 13 | 212 | 3.2 | 6.4 | 0.00 | 0.00 | 0.00 | 80 | 1009.6 |
| 20260506153507 | 13 | 216 | 1.6 | 6.4 | 0.00 | 0.00 | 0.00 | 81 | 1009.7 |
| 20260506153004 | 13 | 214 | 1.6 | 6.4 | 0.00 | 0.00 | 0.00 | 81 | 1009.7 |
| 20260506152502 | 13 | 158 | 1.6 | 6.4 | 0.00 | 0.00 | 0.00 | 81 | 1009.8 |
| 20260506152004 | 13 | 250 | 1.6 | 6.4 | 0.00 | 0.00 | 0.00 | 81 | 1009.7 |
| 20260506151506 | 14 | 166 | 3.2 | 6.4 | 0.00 | 0.00 | 0.00 | 80 | 1009.5 |
| 20260506151003 | 14 | 167 | 3.2 | 4.8 | 0.00 | 0.00 | 0.00 | 80 | 1009.7 |
| 20260506150503 | 14 | 155 | 1.6 | 6.4 | 0.00 | 0.00 | 0.00 | 80 | 1009.6 |
| 20260506150006 | 14 | 127 | 3.2 | 6.4 | 0.00 | 0.00 | 0.00 | 80 | 1009.6 |
| 20260506145504 | 14 | 180 | 3.2 | 8.0 | 0.00 | 0.00 | 0.00 | 81 | 1009.5 |
| 20260506145005 | 13 | 129 | 1.6 | 8.0 | 0.00 | 0.00 | 0.00 | 80 | 1009.4 |
| 20260506144509 | 13 | 131 | 3.2 | 6.4 | 0.00 | 0.00 | 0.00 | 80 | 1009.3 |
| 20260506144006 | 13 | 135 | 1.6 | 9.7 | 0.00 | 0.00 | 0.00 | 81 | 1009.3 |
| 20260506143505 | 13 | 239 | 3.2 | 9.7 | 0.00 | 0.00 | 0.00 | 80 | 1009.2 |
| 20260506143015 | 13 | 216 | 1.6 | 6.4 | 0.00 | 0.00 | 0.00 | 81 | 1009.2 |
| 20260506142506 | 13 | 131 | 1.6 | 6.4 | 0.00 | 0.00 | 0.00 | 81 | 1009.3 |
| 20260506142004 | 13 | 242 | 1.6 | 4.8 | 0.00 | 0.00 | 0.00 | 80 | 1009.4 |
| 20260506141505 | 13 | 206 | 1.6 | 4.8 | 0.00 | 0.00 | 0.00 | 81 | 1009.6 |
| 20260506141005 | 13 | 70 | 3.2 | 4.8 | 0.00 | 0.00 | 0.00 | 81 | 1009.8 |
| 20260506140507 | 13 | 102 | 1.6 | 4.8 | 0.00 | 0.00 | 0.00 | 81 | 1010.0 |
| 20260506140008 | 13 | 258 | 1.6 | 4.8 | 0.00 | 0.00 | 0.00 | 81 | 1010.0 |
| 20260506135504 | 13 | 167 | 1.6 | 4.8 | 0.00 | 0.00 | 0.00 | 81 | 1010.0 |
| 20260506135004 | 13 | 167 | 1.6 | 6.4 | 0.00 | 0.00 | 0.00 | 81 | 1009.8 |
| 20260506134507 | 13 | 175 | 1.6 | 6.4 | 0.00 | 0.00 | 0.00 | 82 | 1009.8 |
| 20260506134004 | 13 | 92 | 1.6 | 4.8 | 0.00 | 0.00 | 0.00 | 81 | 1009.8 |
| 20260506133506 | 13 | 240 | 0.0 | 4.8 | 0.00 | 0.00 | 0.00 | 81 | 1009.8 |
| 20260506133009 | 13 | 198 | 1.6 | 4.8 | 0.00 | 0.00 | 0.00 | 81 | 1009.8 |
| 20260506132506 | 13 | 205 | 1.6 | 4.8 | 0.00 | 0.00 | 0.00 | 80 | 1009.7 |
| 20260506132006 | 13 | 259 | 1.6 | 4.8 | 0.00 | 0.00 | 0.00 | 80 | 1009.7 |
| 20260506131508 | 13 | 130 | 3.2 | 4.8 | 0.00 | 0.00 | 0.00 | 80 | 1009.7 |
| 20260506131003 | 13 | 106 | 1.6 | 6.4 | 0.00 | 0.00 | 0.00 | 81 | 1009.7 |
| 20260506130506 | 13 | 101 | 1.6 | 6.4 | 0.00 | 0.00 | 0.00 | 80 | 1009.6 |
| 20260506130006 | 13 | 122 | 1.6 | 4.8 | 0.00 | 0.00 | 0.00 | 80 | 1009.6 |
| 20260506125504 | 14 | 191 | 1.6 | 4.8 | 0.00 | 0.00 | 0.00 | 80 | 1009.5 |
| 20260506125004 | 13 | 117 | 1.6 | 3.2 | 0.00 | 0.00 | 0.00 | 80 | 1009.6 |
| 20260506124508 | 13 | 262 | 1.6 | 4.8 | 0.00 | 0.00 | 0.00 | 81 | 1009.5 |
| 20260506124007 | 13 | 169 | 0.0 | 4.8 | 0.00 | 0.00 | 0.00 | 81 | 1009.6 |
| 20260506123505 | 13 | 128 | 1.6 | 4.8 | 0.00 | 0.00 | 0.00 | 81 | 1009.9 |
| 20260506123010 | 13 | 126 | 1.6 | 4.8 | 0.00 | 0.00 | 0.00 | 81 | 1009.8 |
| 20260506122507 | 13 | 249 | 0.0 | 3.2 | 0.00 | 0.00 | 0.00 | 82 | 1009.8 |
| 20260506122005 | 12 | 257 | 1.6 | 3.2 | 0.00 | 0.00 | 0.00 | 82 | 1009.9 |
| 20260506121508 | 12 | 108 | 1.6 | 3.2 | 0.00 | 0.00 | 0.00 | 82 | 1009.8 |
| 20260506121007 | 12 | 136 | 1.6 | 3.2 | 0.00 | 0.00 | 0.00 | 82 | 1010.0 |
| 20260506120509 | 12 | 122 | 1.6 | 3.2 | 0.00 | 0.00 | 0.00 | 82 | 1009.9 |
| 20260506120011 | 12 | 124 | 0.0 | 1.6 | 0.00 | 0.00 | 0.00 | 82 | 1010.0 |
| 20260506115504 | 12 | 123 | 0.0 | 1.6 | 0.00 | 0.00 | 0.00 | 83 | 1010.0 |
| 20260506115004 | 12 | 122 | 0.0 | 1.6 | 0.00 | 0.00 | 0.00 | 83 | 1009.9 |
| 20260506114508 | 12 | 123 | 0.0 | 1.6 | 0.00 | 0.00 | 0.00 | 84 | 1010.0 |
| 20260506114006 | 12 | 119 | 1.6 | 1.6 | 0.00 | 0.00 | 0.00 | 84 | 1010.0 |
| 20260506113507 | 12 | 118 | 0.0 | 1.6 | 0.00 | 0.00 | 0.00 | 84 | 1010.3 |
| 20260506113015 | 11 | 117 | 0.0 | 1.6 | 0.00 | 0.00 | 0.00 | 84 | 1010.0 |
| 20260506112505 | 11 | 117 | 0.0 | 1.6 | 0.00 | 0.00 | 0.00 | 84 | 1010.1 |
| 20260506112005 | 11 | 118 | 0.0 | 1.6 | 0.00 | 0.00 | 0.00 | 85 | 1010.2 |
| 20260506111512 | 11 | 118 | 0.0 | 1.6 | 0.00 | 0.00 | 0.00 | 85 | 1010.3 |
| 20260506111006 | 11 | 116 | 0.0 | 1.6 | 0.00 | 0.00 | 0.00 | 86 | 1010.2 |
| 20260506110505 | 11 | 117 | 0.0 | 1.6 | 0.00 | 0.00 | 0.00 | 85 | 1010.2 |
| 20260506110012 | 11 | 117 | 0.0 | 1.6 | 0.00 | 0.00 | 0.00 | 85 | 1010.3 |
| 20260506105512 | 11 | 117 | 0.0 | 1.6 | 0.00 | 0.00 | 0.00 | 86 | 1010.2 |